Time;durP1;ratioP1;P1;durP2;ratioP2;P2;SDS_P1;SDS_P2;PMS_P1;PMS_P2;Temp;Humidity;BMP_temperature;BMP_pressure;BME280_temperature;BME280_humidity;BME280_pressure;Samples;Min_cycle;Max_cycle;Signal;HPM_P1;HPM_P2
2023/07/25 03:00:31;;;;;;;1.20;1.10;;;25.70;47.90;;;;;;5885973;23;45937;-89
2023/07/25 03:02:57;;;;;;;1.27;1.17;;;25.70;47.90;;;;;;4939224;28;45212;-84
2023/07/25 03:05:26;;;;;;;1.23;1.13;;;25.80;48.00;;;;;;4969201;28;45123;-90
2023/07/25 03:07:52;;;;;;;1.15;1.05;;;25.70;47.90;;;;;;4993270;28;45135;-84
2023/07/25 03:10:18;;;;;;;1.20;1.10;;;25.70;47.90;;;;;;4985659;28;45269;-88
2023/07/25 03:12:43;;;;;;;1.05;0.95;;;25.70;47.90;;;;;;4943233;28;44752;-86
2023/07/25 03:15:09;;;;;;;1.30;1.00;;;25.70;47.90;;;;;;4958452;28;45156;-93
2023/07/25 03:17:35;;;;;;;1.25;1.00;;;25.70;47.90;;;;;;4953791;28;45131;-86
2023/07/25 03:20:00;;;;;;;1.97;1.10;;;25.70;47.90;;;;;;4944634;28;47155;-85
2023/07/25 03:22:26;;;;;;;1.00;0.90;;;25.70;47.90;;;;;;4956550;28;45075;-87
2023/07/25 03:24:51;;;;;;;1.50;1.10;;;25.70;47.90;;;;;;4979484;28;45230;-83
2023/07/25 03:27:17;;;;;;;1.25;1.15;;;25.70;47.90;;;;;;4989057;28;45091;-86
2023/07/25 03:29:43;;;;;;;1.73;1.00;;;25.70;47.90;;;;;;4986291;28;45281;-87
2023/07/25 03:32:09;;;;;;;1.10;1.00;;;25.70;47.90;;;;;;4966220;28;45298;-89
2023/07/25 03:34:34;;;;;;;1.40;1.10;;;25.70;47.90;;;;;;4991469;28;46003;-87
2023/07/25 03:37:00;;;;;;;1.60;1.10;;;25.70;47.90;;;;;;4988706;28;44985;-85
2023/07/25 03:39:25;;;;;;;1.10;1.00;;;25.70;47.90;;;;;;4977324;28;45157;-92
2023/07/25 03:41:51;;;;;;;2.40;1.13;;;25.70;47.90;;;;;;4986377;28;44741;-85
2023/07/25 03:44:18;;;;;;;1.20;1.08;;;25.70;47.90;;;;;;4972813;28;45251;-85
2023/07/25 03:46:44;;;;;;;0.90;0.90;;;25.70;47.90;;;;;;5002994;28;45402;-89
2023/07/25 03:49:10;;;;;;;1.10;1.00;;;25.70;47.80;;;;;;4991500;28;45482;-87
2023/07/25 03:51:36;;;;;;;1.27;1.10;;;25.70;47.90;;;;;;4976260;28;45077;-84
2023/07/25 03:54:03;;;;;;;1.00;0.90;;;25.70;47.90;;;;;;4972574;28;45027;-85
2023/07/25 03:56:28;;;;;;;1.17;1.00;;;25.70;48.40;;;;;;4971928;28;45138;-87
2023/07/25 03:58:54;;;;;;;1.20;1.10;;;25.70;47.80;;;;;;4975220;28;45518;-85
2023/07/25 04:01:20;;;;;;;1.17;1.07;;;25.70;47.80;;;;;;4949180;28;44996;-83
2023/07/25 04:03:45;;;;;;;1.30;1.00;;;25.70;47.80;;;;;;4955168;28;45199;-85
2023/07/25 04:06:11;;;;;;;1.20;1.10;;;25.70;47.80;;;;;;4952217;28;45177;-84
2023/07/25 04:08:36;;;;;;;1.50;1.10;;;25.70;47.80;;;;;;4965298;28;45075;-83
2023/07/25 04:11:02;;;;;;;1.90;0.93;;;25.70;47.80;;;;;;4967187;28;44710;-85
2023/07/25 04:13:28;;;;;;;1.52;1.10;;;25.70;47.80;;;;;;4967074;28;45145;-93
2023/07/25 04:15:53;;;;;;;1.10;1.00;;;25.70;47.80;;;;;;4951307;28;45237;-88
2023/07/25 04:18:19;;;;;;;1.85;0.95;;;25.70;47.80;;;;;;4950873;28;46949;-85
2023/07/25 04:20:44;;;;;;;1.47;1.20;;;25.70;47.80;;;;;;4966661;28;45335;-85
2023/07/25 04:23:10;;;;;;;1.63;1.03;;;25.70;47.80;;;;;;4967959;28;45019;-87
2023/07/25 04:25:35;;;;;;;1.00;0.90;;;25.60;47.70;;;;;;4960782;28;45148;-83
2023/07/25 04:28:01;;;;;;;1.27;1.10;;;25.60;47.70;;;;;;4953045;28;45587;-84
2023/07/25 04:30:30;;;;;;;1.47;1.03;;;25.70;47.80;;;;;;4946790;28;45366;-90
2023/07/25 04:32:55;;;;;;;1.10;1.00;;;25.70;47.80;;;;;;4967629;28;45269;-87
2023/07/25 04:35:21;;;;;;;1.00;0.90;;;25.60;47.70;;;;;;4965287;28;45430;-87
2023/07/25 04:37:46;;;;;;;1.20;1.00;;;25.70;47.80;;;;;;4949593;28;47440;-86
2023/07/25 04:40:13;;;;;;;1.80;1.30;;;25.60;47.70;;;;;;4953611;28;45309;-92
2023/07/25 04:42:39;;;;;;;0.82;0.82;;;25.70;47.80;;;;;;4983610;28;45080;-85
2023/07/25 04:45:06;;;;;;;1.10;1.00;;;25.70;47.80;;;;;;4967684;28;45288;-90
2023/07/25 04:47:31;;;;;;;1.08;0.98;;;25.70;47.80;;;;;;4930674;28;46659;-82
2023/07/25 04:49:57;;;;;;;1.10;1.00;;;25.60;47.70;;;;;;4948713;28;45012;-85
2023/07/25 04:52:22;;;;;;;1.17;1.07;;;25.70;47.80;;;;;;4947955;28;45108;-85
2023/07/25 04:54:49;;;;;;;1.10;1.00;;;25.60;47.80;;;;;;4962084;28;45865;-85
2023/07/25 04:57:16;;;;;;;1.08;0.80;;;25.70;47.80;;;;;;4961107;28;47486;-84
2023/07/25 04:59:41;;;;;;;1.10;1.00;;;25.70;47.80;;;;;;4935997;28;44944;-82
2023/07/25 05:02:07;;;;;;;0.90;0.90;;;25.60;47.70;;;;;;4956759;28;45016;-84
2023/07/25 05:04:32;;;;;;;1.35;1.10;;;25.70;47.80;;;;;;4954522;28;45230;-84
2023/07/25 05:06:58;;;;;;;1.88;1.00;;;25.70;47.80;;;;;;4978529;28;45560;-85
2023/07/25 05:09:24;;;;;;;2.22;1.00;;;25.60;47.70;;;;;;4952961;28;45158;-84
2023/07/25 05:11:52;;;;;;;1.08;0.95;;;25.70;47.80;;;;;;4968504;28;45230;-86
2023/07/25 05:14:18;;;;;;;1.42;1.00;;;25.70;47.80;;;;;;4954859;28;45496;-81
2023/07/25 05:16:43;;;;;;;1.10;1.00;;;25.60;47.70;;;;;;4951847;28;46828;-84
2023/07/25 05:19:09;;;;;;;1.53;1.03;;;25.60;47.80;;;;;;4986447;28;45045;-81
2023/07/25 05:21:35;;;;;;;1.27;1.07;;;25.70;47.80;;;;;;4954351;28;45949;-83
2023/07/25 05:24:00;;;;;;;1.13;0.93;;;25.70;47.80;;;;;;4949673;28;44708;-82
2023/07/25 05:26:26;;;;;;;1.27;1.02;;;25.60;47.80;;;;;;4951543;28;46903;-85
2023/07/25 05:28:52;;;;;;;1.30;0.90;;;25.70;47.80;;;;;;4970523;28;45421;-83
2023/07/25 05:31:17;;;;;;;1.50;0.90;;;25.60;47.80;;;;;;4946769;28;45250;-85
2023/07/25 05:33:43;;;;;;;1.23;1.10;;;25.60;47.80;;;;;;4969624;28;45412;-83
2023/07/25 05:36:09;;;;;;;1.20;1.10;;;25.60;47.80;;;;;;4953353;28;45246;-83
2023/07/25 05:38:34;;;;;;;0.83;0.80;;;25.60;47.80;;;;;;4960424;28;45089;-84
2023/07/25 05:41:00;;;;;;;1.13;1.00;;;25.60;47.80;;;;;;4982903;28;45119;-82
2023/07/25 05:43:25;;;;;;;1.40;0.97;;;25.60;47.80;;;;;;4952567;28;45718;-82
2023/07/25 05:45:51;;;;;;;1.00;0.80;;;25.60;47.80;;;;;;4980415;28;45451;-84
2023/07/25 05:48:16;;;;;;;1.07;0.97;;;25.60;47.80;;;;;;4936088;28;45237;-87
2023/07/25 05:50:42;;;;;;;1.03;0.90;;;25.60;47.80;;;;;;4949179;28;44757;-84
2023/07/25 05:53:08;;;;;;;1.10;1.00;;;25.60;47.80;;;;;;4955788;28;44810;-83
2023/07/25 05:55:34;;;;;;;1.00;0.90;;;25.60;47.80;;;;;;4966860;28;47120;-83
2023/07/25 05:57:59;;;;;;;1.37;0.80;;;25.60;47.80;;;;;;4939442;28;45089;-81
2023/07/25 06:00:25;;;;;;;1.00;0.90;;;25.60;47.80;;;;;;4966854;28;45161;-82
2023/07/25 06:02:51;;;;;;;0.97;0.90;;;25.60;47.80;;;;;;4938403;28;45153;-82
2023/07/25 06:05:17;;;;;;;1.20;0.90;;;25.60;47.80;;;;;;4949586;28;45524;-84
2023/07/25 06:07:42;;;;;;;1.45;1.02;;;25.60;47.80;;;;;;4983125;28;45014;-83
2023/07/25 06:10:08;;;;;;;1.38;1.10;;;25.60;47.80;;;;;;4972098;28;45789;-85
2023/07/25 06:12:37;;;;;;;2.00;1.05;;;25.60;47.80;;;;;;4977050;28;45049;-81
2023/07/25 06:15:05;;;;;;;1.23;1.05;;;25.60;47.90;;;;;;4969764;28;45308;-89
2023/07/25 06:17:30;;;;;;;1.02;0.88;;;25.60;47.90;;;;;;4967260;28;45337;-85
2023/07/25 06:19:56;;;;;;;2.00;1.10;;;25.60;47.80;;;;;;4955079;28;45112;-83
2023/07/25 06:22:22;;;;;;;1.90;1.00;;;25.60;47.80;;;;;;4968185;28;45093;-83
2023/07/25 06:24:47;;;;;;;1.13;1.00;;;25.60;47.80;;;;;;4954751;28;46926;-83
2023/07/25 06:27:13;;;;;;;0.80;0.70;;;25.60;47.80;;;;;;4983240;28;45511;-83
2023/07/25 06:29:38;;;;;;;1.70;1.02;;;25.60;47.90;;;;;;4971748;28;45318;-83
2023/07/25 06:32:04;;;;;;;1.02;0.90;;;25.60;47.90;;;;;;4949907;23;46107;-46
2023/07/25 06:34:30;;;;;;;1.50;0.90;;;25.60;47.90;;;;;;4948416;28;45926;-45
2023/07/25 06:36:55;;;;;;;2.22;1.00;;;25.60;47.90;;;;;;4925129;28;45463;-45
2023/07/25 06:39:21;;;;;;;1.30;0.95;;;25.60;47.90;;;;;;4956780;28;45399;-46
2023/07/25 06:41:47;;;;;;;1.20;1.00;;;25.60;47.90;;;;;;4906398;28;45780;-45
2023/07/25 06:44:12;;;;;;;1.70;1.05;;;25.60;47.80;;;;;;4929802;28;46415;-45
2023/07/25 06:46:38;;;;;;;1.73;1.10;;;25.60;47.80;;;;;;4882511;28;45342;-47
2023/07/25 06:49:04;;;;;;;0.83;0.83;;;25.60;47.90;;;;;;4927233;28;44951;-45
2023/07/25 06:51:29;;;;;;;1.17;0.93;;;25.60;47.80;;;;;;4915348;28;45239;-47
2023/07/25 06:53:55;;;;;;;1.20;0.90;;;25.60;47.80;;;;;;4933458;28;45249;-45
2023/07/25 06:56:20;;;;;;;1.45;1.13;;;25.60;47.80;;;;;;4915637;28;45300;-46
2023/07/25 06:58:46;;;;;;;1.42;0.90;;;25.60;47.80;;;;;;4933448;28;44801;-47
2023/07/25 07:01:12;;;;;;;1.00;0.90;;;25.60;47.80;;;;;;4907318;28;47086;-44
2023/07/25 07:03:37;;;;;;;1.10;0.90;;;25.60;47.80;;;;;;4931919;28;45574;-45
2023/07/25 07:06:03;;;;;;;2.60;1.00;;;25.60;47.90;;;;;;4913167;28;45357;-47
2023/07/25 07:08:28;;;;;;;1.10;1.00;;;25.60;47.90;;;;;;4933088;28;45555;-45
2023/07/25 07:10:54;;;;;;;1.20;1.00;;;25.60;47.90;;;;;;4917044;28;45124;-46
2023/07/25 07:13:20;;;;;;;1.10;1.00;;;25.60;47.90;;;;;;4939199;28;45313;-46
2023/07/25 07:15:46;;;;;;;1.20;0.95;;;25.50;48.40;;;;;;4906568;28;45254;-45
2023/07/25 07:18:12;;;;;;;1.45;1.00;;;25.60;47.90;;;;;;4930180;28;45364;-46
2023/07/25 07:20:37;;;;;;;1.87;1.07;;;25.60;47.90;;;;;;4913703;28;44847;-46
2023/07/25 07:23:03;;;;;;;1.27;0.80;;;25.60;47.90;;;;;;4931641;28;45277;-45
2023/07/25 07:25:29;;;;;;;0.97;0.90;;;25.60;47.90;;;;;;4919850;28;45202;-45
2023/07/25 07:27:54;;;;;;;1.52;1.00;;;25.50;47.80;;;;;;4937062;28;45182;-47
2023/07/25 07:30:21;;;;;;;1.27;0.93;;;25.60;47.80;;;;;;4922102;28;44893;-50
2023/07/25 07:32:47;;;;;;;1.00;0.90;;;25.60;47.90;;;;;;4918710;28;46467;-46
2023/07/25 07:35:13;;;;;;;1.17;0.90;;;25.60;47.90;;;;;;4904207;28;45381;-47
2023/07/25 07:37:39;;;;;;;0.80;0.80;;;25.50;47.90;;;;;;4908591;28;45542;-45
2023/07/25 07:40:09;;;;;;;2.33;1.20;;;25.50;47.80;;;;;;4929293;28;45083;-46
2023/07/25 07:42:35;;;;;;;1.20;0.82;;;25.50;47.90;;;;;;4884100;23;46289;-46
2023/07/25 07:45:01;;;;;;;1.90;1.00;;;25.50;47.80;;;;;;4877503;28;45198;-45
2023/07/25 07:47:26;;;;;;;0.90;0.80;;;25.50;47.80;;;;;;4849765;28;45252;-45
2023/07/25 07:49:52;;;;;;;1.10;0.80;;;25.50;47.80;;;;;;4874691;28;45635;-46
2023/07/25 07:52:18;;;;;;;0.83;0.80;;;25.50;47.90;;;;;;4862683;28;46140;-45
2023/07/25 07:54:43;;;;;;;1.10;0.90;;;25.50;47.90;;;;;;4874704;28;45771;-46
2023/07/25 07:57:09;;;;;;;1.27;0.90;;;25.50;47.90;;;;;;4860922;28;45174;-46
2023/07/25 07:59:34;;;;;;;0.80;0.80;;;25.50;47.90;;;;;;4877516;28;45237;-46
2023/07/25 08:02:00;;;;;;;1.30;0.88;;;25.50;47.90;;;;;;4849332;28;45613;-45
2023/07/25 08:04:26;;;;;;;1.27;0.90;;;25.50;47.90;;;;;;4878568;28;45410;-45
2023/07/25 08:06:51;;;;;;;0.87;0.70;;;25.50;47.90;;;;;;4849390;28;46520;-44
2023/07/25 08:09:17;;;;;;;1.20;1.00;;;25.50;47.90;;;;;;4865837;28;45764;-45
2023/07/25 08:11:42;;;;;;;2.00;0.80;;;25.50;47.90;;;;;;4855115;28;45593;-45
2023/07/25 08:14:11;;;;;;;0.80;0.77;;;25.50;47.90;;;;;;4868203;28;63645;-47
2023/07/25 08:16:37;;;;;;;1.40;0.85;;;25.50;47.90;;;;;;4846424;28;45291;-44
2023/07/25 08:19:02;;;;;;;1.10;0.90;;;25.50;47.90;;;;;;4866150;28;46799;-44
2023/07/25 08:21:28;;;;;;;1.37;0.90;;;25.50;47.90;;;;;;4853212;28;45881;-46
2023/07/25 08:23:53;;;;;;;1.30;0.80;;;25.50;47.90;;;;;;4865257;28;45753;-46
2023/07/25 08:26:19;;;;;;;1.00;0.80;;;25.50;47.90;;;;;;4856303;28;46434;-46
2023/07/25 08:28:45;;;;;;;1.33;1.00;;;25.50;47.90;;;;;;4868148;28;45796;-45
2023/07/25 08:31:11;;;;;;;1.00;0.80;;;25.50;48.00;;;;;;4844600;28;46522;-45
2023/07/25 08:33:36;;;;;;;1.10;0.90;;;25.50;47.90;;;;;;4878845;28;47908;-45
2023/07/25 08:36:02;;;;;;;1.30;0.87;;;25.50;47.90;;;;;;4853536;28;45630;-46
2023/07/25 08:38:28;;;;;;;1.10;0.80;;;25.50;47.90;;;;;;4864975;28;45831;-47
2023/07/25 08:41:16;;;;;;;1.10;0.80;;;25.50;48.00;;;;;;4869734;28;45716;-46
2023/07/25 08:43:43;;;;;;;0.93;0.87;;;25.50;48.00;;;;;;4890863;28;46320;-46
2023/07/25 08:46:10;;;;;;;1.00;0.70;;;25.50;48.40;;;;;;4864424;28;45478;-45
2023/07/25 08:48:40;;;;;;;1.00;0.73;;;25.50;48.00;;;;;;4885689;28;46081;-46
2023/07/25 08:51:19;;;;;;;1.10;0.80;;;25.40;47.90;;;;;;4866080;28;47051;-45
2023/07/25 08:54:01;;;;;;;1.20;0.80;;;25.50;48.00;;;;;;4887381;28;45378;-47
2023/07/25 08:56:26;;;;;;;1.00;0.80;;;25.50;48.00;;;;;;4860884;28;45332;-46
2023/07/25 08:58:52;;;;;;;2.50;0.80;;;25.50;48.00;;;;;;4857183;28;45573;-45
2023/07/25 09:01:17;;;;;;;1.77;0.80;;;25.40;48.00;;;;;;4851442;28;46235;-45
2023/07/25 09:03:43;;;;;;;1.45;1.00;;;25.50;48.00;;;;;;4867945;28;45780;-47
2023/07/25 09:06:09;;;;;;;1.27;0.95;;;25.50;48.00;;;;;;4855271;28;45795;-46
2023/07/25 09:08:34;;;;;;;0.90;0.80;;;25.50;48.00;;;;;;4869296;28;45182;-47
2023/07/25 09:11:00;;;;;;;1.50;1.20;;;25.50;48.00;;;;;;4870109;28;45089;-46
2023/07/25 09:13:25;;;;;;;0.97;0.77;;;25.40;47.90;;;;;;4887051;28;45403;-45
2023/07/25 09:15:51;;;;;;;1.00;0.80;;;25.50;48.00;;;;;;4863942;28;45309;-45
2023/07/25 09:18:16;;;;;;;1.57;0.70;;;25.50;48.00;;;;;;4870203;28;45628;-47
2023/07/25 09:20:42;;;;;;;0.70;0.70;;;25.50;48.10;;;;;;4856693;28;46005;-45
2023/07/25 09:23:08;;;;;;;1.47;0.90;;;25.50;48.00;;;;;;4875726;28;45391;-46
2023/07/25 09:25:34;;;;;;;1.65;0.90;;;25.50;48.00;;;;;;4871361;28;48487;-45
2023/07/25 09:27:59;;;;;;;1.03;0.83;;;25.40;48.00;;;;;;4889823;28;45683;-45
2023/07/25 09:30:29;;;;;;;1.10;0.90;;;25.50;48.00;;;;;;4869180;28;45372;-46
2023/07/25 09:32:54;;;;;;;1.00;0.70;;;25.40;48.00;;;;;;4877067;28;45275;-47
2023/07/25 09:35:22;;;;;;;0.88;0.80;;;25.40;48.00;;;;;;4871170;28;45200;-44
2023/07/25 09:37:54;;;;;;;1.30;0.90;;;25.40;48.00;;;;;;4885195;28;45381;-45
2023/07/25 09:40:20;;;;;;;1.10;0.70;;;25.50;48.20;;;;;;4855199;28;45215;-45
2023/07/25 09:42:50;;;;;;;0.80;0.70;;;25.40;48.00;;;;;;4881260;28;45371;-47
2023/07/25 09:45:16;;;;;;;1.20;0.90;;;25.40;48.00;;;;;;4882726;28;45327;-45
2023/07/25 09:47:41;;;;;;;1.20;0.80;;;25.40;48.10;;;;;;4877035;28;45329;-45
2023/07/25 09:50:09;;;;;;;0.87;0.70;;;25.40;48.00;;;;;;4877919;28;45132;-47
2023/07/25 09:52:39;;;;;;;1.08;0.70;;;25.50;48.10;;;;;;4867852;28;45368;-45
2023/07/25 09:55:07;;;;;;;1.10;0.80;;;25.40;48.00;;;;;;4878420;28;45545;-45
2023/07/25 09:57:34;;;;;;;1.42;1.00;;;25.40;48.00;;;;;;4857559;28;46509;-49
2023/07/25 09:59:59;;;;;;;1.52;0.73;;;25.40;48.00;;;;;;4874464;28;45896;-47
2023/07/25 10:02:25;;;;;;;2.30;0.90;;;25.40;48.00;;;;;;4849171;28;45371;-47
2023/07/25 10:04:50;;;;;;;1.47;1.00;;;25.40;48.10;;;;;;4883415;28;45433;-46
2023/07/25 10:07:16;;;;;;;1.03;0.83;;;25.40;48.10;;;;;;4867958;28;45183;-45
2023/07/25 10:09:44;;;;;;;1.00;0.70;;;25.40;48.10;;;;;;4891442;28;45297;-44
2023/07/25 10:12:09;;;;;;;1.00;0.80;;;25.40;48.10;;;;;;4861615;28;45195;-45
2023/07/25 10:14:37;;;;;;;0.93;0.73;;;25.40;48.10;;;;;;4863196;28;46621;-48
2023/07/25 10:17:02;;;;;;;0.93;0.80;;;25.40;48.20;;;;;;4861741;28;45223;-46
2023/07/25 10:19:28;;;;;;;1.23;0.80;;;25.40;48.10;;;;;;4872916;28;47188;-46
2023/07/25 10:21:54;;;;;;;1.38;0.93;;;25.50;48.20;;;;;;4849465;28;45293;-49
2023/07/25 10:24:20;;;;;;;0.98;0.80;;;25.50;48.30;;;;;;4874610;28;45378;-45
2023/07/25 10:26:56;;;;;;;0.93;0.73;;;25.40;48.10;;;;;;4882216;28;46302;-47
2023/07/25 10:29:44;;;;;;;1.60;1.10;;;25.40;48.10;;;;;;4892303;28;46087;-45
2023/07/25 10:32:13;;;;;;;1.55;0.90;;;25.50;48.20;;;;;;4866734;28;45483;-46
2023/07/25 10:35:02;;;;;;;1.52;0.75;;;25.40;48.20;;;;;;4890418;28;44941;-49
2023/07/25 10:37:38;;;;;;;1.00;0.70;;;25.50;48.30;;;;;;4870900;28;45199;-45
2023/07/25 10:40:16;;;;;;;0.80;0.80;;;25.40;48.20;;;;;;4876762;28;45364;-50
2023/07/25 10:42:51;;;;;;;0.90;0.60;;;25.40;48.20;;;;;;4885971;28;45416;-45
2023/07/25 10:45:27;;;;;;;1.25;0.90;;;25.40;48.20;;;;;;4877327;28;45459;-45
2023/07/25 10:47:54;;;;;;;0.67;0.60;;;25.50;48.30;;;;;;4870538;28;45356;-46
2023/07/25 10:50:23;;;;;;;0.90;0.77;;;25.50;48.30;;;;;;4875018;28;46924;-46
2023/07/25 10:52:49;;;;;;;1.30;0.80;;;25.40;48.30;;;;;;4872613;28;45781;-44
2023/07/25 10:55:15;;;;;;;0.77;0.70;;;25.40;48.20;;;;;;4881531;28;45032;-45
2023/07/25 10:57:40;;;;;;;0.70;0.70;;;25.50;48.30;;;;;;4891619;28;45215;-48
2023/07/25 11:00:10;;;;;;;1.25;0.80;;;25.40;48.20;;;;;;4882845;28;45227;-46
2023/07/25 11:02:36;;;;;;;1.10;0.85;;;25.50;48.30;;;;;;4882474;28;45035;-47
2023/07/25 11:05:14;;;;;;;0.77;0.73;;;25.50;48.30;;;;;;4887814;28;45265;-46
2023/07/25 11:07:45;;;;;;;0.73;0.73;;;25.50;48.30;;;;;;4889672;28;45801;-46
2023/07/25 11:10:27;;;;;;;1.23;0.80;;;25.40;48.30;;;;;;4870496;28;45375;-45
2023/07/25 11:12:57;;;;;;;2.28;1.10;;;25.40;48.30;;;;;;4900749;28;47022;-45
2023/07/25 11:15:23;;;;;;;0.80;0.70;;;25.50;48.30;;;;;;4881149;28;46673;-45
2023/07/25 11:17:49;;;;;;;0.90;0.60;;;25.50;48.30;;;;;;4888740;28;45356;-47
2023/07/25 11:20:16;;;;;;;0.70;0.68;;;25.50;48.30;;;;;;4877098;28;46493;-45
2023/07/25 11:22:42;;;;;;;0.70;0.57;;;25.50;48.40;;;;;;4881591;28;45298;-45
2023/07/25 11:25:08;;;;;;;1.00;0.82;;;25.40;48.20;;;;;;4863530;28;49015;-45
2023/07/25 11:27:39;;;;;;;0.90;0.80;;;25.50;48.40;;;;;;4891326;28;45600;-45
2023/07/25 11:30:13;;;;;;;0.73;0.70;;;25.50;48.30;;;;;;4889334;28;45161;-48
2023/07/25 11:32:44;;;;;;;0.98;0.70;;;25.50;48.30;;;;;;4863138;28;45319;-45
2023/07/25 11:35:10;;;;;;;1.00;0.70;;;25.50;48.30;;;;;;4879501;28;45020;-46
2023/07/25 11:37:35;;;;;;;0.73;0.70;;;25.50;48.40;;;;;;4853028;28;45325;-47
2023/07/25 11:40:15;;;;;;;1.70;0.80;;;25.50;48.30;;;;;;4883865;28;45367;-45
2023/07/25 11:42:45;;;;;;;1.33;0.85;;;25.40;48.30;;;;;;4885762;28;45635;-46
2023/07/25 11:45:11;;;;;;;1.02;0.93;;;25.50;48.40;;;;;;4877665;28;44725;-45
2023/07/25 11:47:38;;;;;;;0.70;0.70;;;25.40;48.30;;;;;;4859085;28;45286;-45
2023/07/25 11:50:08;;;;;;;1.70;0.90;;;25.50;48.40;;;;;;4882397;28;46066;-46
2023/07/25 11:52:33;;;;;;;1.05;0.70;;;25.40;48.30;;;;;;4868433;28;46528;-45
2023/07/25 11:55:00;;;;;;;0.60;0.60;;;25.50;48.40;;;;;;4866036;28;45252;-45
2023/07/25 11:57:26;;;;;;;0.95;0.68;;;25.50;48.40;;;;;;4871059;28;46002;-47
2023/07/25 11:59:56;;;;;;;0.70;0.70;;;25.50;48.40;;;;;;4888140;28;45013;-46
2023/07/25 12:02:24;;;;;;;3.08;0.82;;;25.50;48.40;;;;;;4859952;28;45231;-46
2023/07/25 12:04:50;;;;;;;0.67;0.67;;;25.40;48.30;;;;;;4892471;28;45522;-45
2023/07/25 12:07:15;;;;;;;0.77;0.60;;;25.40;48.30;;;;;;4853548;28;45507;-47
2023/07/25 12:09:53;;;;;;;1.23;0.80;;;25.50;48.40;;;;;;4889464;28;45298;-45
2023/07/25 12:12:20;;;;;;;0.70;0.60;;;25.40;48.30;;;;;;4876895;28;45312;-45
2023/07/25 12:15:01;;;;;;;0.60;0.60;;;25.50;48.40;;;;;;4893810;28;45737;-45
2023/07/25 12:17:45;;;;;;;1.10;0.65;;;25.50;48.40;;;;;;4840370;28;45896;-45
2023/07/25 12:20:15;;;;;;;1.10;0.70;;;25.50;48.40;;;;;;4878332;28;45337;-45
2023/07/25 12:22:40;;;;;;;0.90;0.70;;;25.50;48.40;;;;;;4875965;28;45246;-45
2023/07/25 12:25:07;;;;;;;0.70;0.70;;;25.50;48.40;;;;;;4881183;28;46976;-46
2023/07/25 12:27:33;;;;;;;1.13;0.82;;;25.50;48.50;;;;;;4889619;28;45303;-47
2023/07/25 12:29:59;;;;;;;0.70;0.60;;;25.50;48.50;;;;;;4895874;28;45216;-44
2023/07/25 12:32:24;;;;;;;1.10;0.80;;;25.40;48.40;;;;;;4863790;28;45309;-46
2023/07/25 12:34:50;;;;;;;0.70;0.67;;;25.50;48.50;;;;;;4890529;28;47386;-44
2023/07/25 12:37:15;;;;;;;1.00;0.90;;;25.50;48.50;;;;;;4877280;28;45866;-45
2023/07/25 12:39:41;;;;;;;0.63;0.63;;;25.40;48.40;;;;;;4878431;28;46207;-45
2023/07/25 12:42:07;;;;;;;0.87;0.60;;;25.50;48.50;;;;;;4873852;28;45445;-45
2023/07/25 12:44:34;;;;;;;0.90;0.80;;;25.40;48.50;;;;;;4889086;28;45294;-45
2023/07/25 12:46:59;;;;;;;0.70;0.60;;;25.40;48.40;;;;;;4872143;28;45378;-46
2023/07/25 12:49:26;;;;;;;0.70;0.68;;;25.40;48.40;;;;;;4886094;28;45396;-44
2023/07/25 12:51:52;;;;;;;1.70;0.63;;;25.50;48.50;;;;;;4879919;28;45227;-46
2023/07/25 12:54:18;;;;;;;0.93;0.70;;;25.50;48.50;;;;;;4882595;28;45464;-45
2023/07/25 12:56:43;;;;;;;1.00;0.75;;;25.40;48.50;;;;;;4879148;28;46317;-45
2023/07/25 12:59:09;;;;;;;0.70;0.70;;;25.50;48.50;;;;;;4889011;28;46038;-46
2023/07/25 13:01:34;;;;;;;0.90;0.70;;;25.40;48.50;;;;;;4872697;28;46335;-45
2023/07/25 13:04:00;;;;;;;1.00;0.80;;;25.40;48.60;;;;;;4887354;28;45439;-45
2023/07/25 13:06:25;;;;;;;1.20;0.80;;;25.50;48.60;;;;;;4860153;28;45309;-45
2023/07/25 13:08:51;;;;;;;0.97;0.80;;;25.40;48.60;;;;;;4891830;28;45964;-47
2023/07/25 13:11:16;;;;;;;0.70;0.70;;;25.50;48.70;;;;;;4880620;28;46200;-45
2023/07/25 13:13:42;;;;;;;1.30;0.80;;;25.40;48.60;;;;;;4891820;28;47038;-45
2023/07/25 13:16:08;;;;;;;0.93;0.70;;;25.50;48.70;;;;;;4857069;28;45928;-44
2023/07/25 13:18:33;;;;;;;1.02;0.70;;;25.50;48.70;;;;;;4883483;28;45187;-45
2023/07/25 13:20:59;;;;;;;0.70;0.70;;;25.40;48.70;;;;;;4879144;28;45337;-47
2023/07/25 13:23:25;;;;;;;1.60;0.73;;;25.40;49.20;;;;;;4886846;28;45290;-46
2023/07/25 13:25:50;;;;;;;1.10;0.85;;;25.50;48.70;;;;;;4870702;28;45761;-45
2023/07/25 13:28:16;;;;;;;0.80;0.70;;;25.50;48.70;;;;;;4888114;28;44928;-47
2023/07/25 13:30:42;;;;;;;1.10;0.75;;;25.50;48.70;;;;;;4859804;28;45667;-48
2023/07/25 13:33:08;;;;;;;0.70;0.70;;;25.50;48.70;;;;;;4886282;28;45763;-46
2023/07/25 13:35:33;;;;;;;1.00;0.70;;;25.40;48.70;;;;;;4859336;28;45556;-45
2023/07/25 13:37:59;;;;;;;0.97;0.70;;;25.40;48.60;;;;;;4890269;28;45738;-45
2023/07/25 13:40:25;;;;;;;0.90;0.73;;;25.50;48.70;;;;;;4886079;28;45297;-45
2023/07/25 13:42:50;;;;;;;1.20;0.80;;;25.50;48.70;;;;;;4892266;28;45563;-48
2023/07/25 13:45:16;;;;;;;0.93;0.80;;;25.40;48.60;;;;;;4876600;28;45315;-45
2023/07/25 13:47:41;;;;;;;1.10;0.60;;;25.40;48.60;;;;;;4877546;28;46203;-45
2023/07/25 13:50:09;;;;;;;0.80;0.60;;;25.50;48.70;;;;;;4898815;23;45959;-46
2023/07/25 13:52:35;;;;;;;0.82;0.70;;;25.40;48.60;;;;;;4913282;28;45608;-46
2023/07/25 13:55:00;;;;;;;0.90;0.70;;;25.50;48.70;;;;;;4937168;28;45222;-45
2023/07/25 13:57:26;;;;;;;0.80;0.70;;;25.50;48.70;;;;;;4923571;28;46101;-45
2023/07/25 13:59:51;;;;;;;0.70;0.70;;;25.40;48.60;;;;;;4939905;28;45248;-45
2023/07/25 14:02:17;;;;;;;1.30;0.90;;;25.50;48.70;;;;;;4909320;28;46343;-45
2023/07/25 14:04:42;;;;;;;0.77;0.77;;;25.50;48.70;;;;;;4942057;28;45298;-44
2023/07/25 14:07:08;;;;;;;0.50;0.50;;;25.50;48.70;;;;;;4929324;28;46034;-45
2023/07/25 14:09:34;;;;;;;0.93;0.60;;;25.40;48.60;;;;;;4924602;28;46385;-45
2023/07/25 14:11:59;;;;;;;0.80;0.60;;;25.40;48.70;;;;;;4926306;28;45284;-45
2023/07/25 14:14:25;;;;;;;0.73;0.63;;;25.40;48.60;;;;;;4936128;28;44717;-45
2023/07/25 14:16:51;;;;;;;1.50;0.80;;;25.40;48.60;;;;;;4918695;28;45796;-47
2023/07/25 14:19:16;;;;;;;0.70;0.70;;;25.40;48.60;;;;;;4936394;28;45758;-46
2023/07/25 14:21:42;;;;;;;0.60;0.60;;;25.50;49.30;;;;;;4928763;28;45142;-45
2023/07/25 14:24:07;;;;;;;1.23;0.77;;;25.40;48.60;;;;;;4936468;28;45815;-45
2023/07/25 14:26:33;;;;;;;1.10;0.70;;;25.40;48.70;;;;;;4925915;28;45363;-45
2023/07/25 14:28:58;;;;;;;0.90;0.60;;;25.40;48.60;;;;;;4943217;28;45769;-45
2023/07/25 14:31:25;;;;;;;0.50;0.50;;;25.50;48.70;;;;;;4916985;28;45462;-45
2023/07/25 14:33:50;;;;;;;1.10;0.70;;;25.50;48.70;;;;;;4935895;28;45474;-46
2023/07/25 14:36:16;;;;;;;0.90;0.70;;;25.40;48.60;;;;;;4916926;28;47447;-47
2023/07/25 14:38:42;;;;;;;1.07;0.77;;;25.40;48.70;;;;;;4921791;28;45670;-45
2023/07/25 14:41:08;;;;;;;1.15;0.63;;;25.40;48.60;;;;;;4914835;28;45513;-45
2023/07/25 14:43:34;;;;;;;0.90;0.70;;;25.40;48.70;;;;;;4937579;28;45197;-46
2023/07/25 14:45:59;;;;;;;0.70;0.60;;;25.40;48.60;;;;;;4914516;28;45458;-48
2023/07/25 14:48:25;;;;;;;0.93;0.60;;;25.50;48.70;;;;;;4925576;28;45495;-47
2023/07/25 14:50:50;;;;;;;0.93;0.70;;;25.50;48.70;;;;;;4906994;28;44826;-45
2023/07/25 14:53:16;;;;;;;0.85;0.70;;;25.50;48.80;;;;;;4939837;28;45149;-44
2023/07/25 14:55:42;;;;;;;1.00;0.63;;;25.50;48.80;;;;;;4927298;28;45277;-45
2023/07/25 14:58:08;;;;;;;0.85;0.60;;;25.50;48.80;;;;;;4939570;28;45068;-46
2023/07/25 15:00:34;;;;;;;0.60;0.50;;;25.50;48.80;;;;;;4922952;28;45263;-45
2023/07/25 15:03:00;;;;;;;1.10;0.80;;;25.40;48.70;;;;;;4936074;28;45426;-45
2023/07/25 15:05:25;;;;;;;0.70;0.60;;;25.50;48.80;;;;;;4911322;28;46223;-48
2023/07/25 15:07:52;;;;;;;0.63;0.53;;;25.40;48.70;;;;;;4938360;28;45388;-45
2023/07/25 15:10:18;;;;;;;0.75;0.60;;;25.40;48.70;;;;;;4929406;28;45331;-48
2023/07/25 15:12:43;;;;;;;0.60;0.57;;;25.40;48.70;;;;;;4906652;28;45404;-45
2023/07/25 15:15:11;;;;;;;0.60;0.60;;;25.50;48.80;;;;;;4913734;28;46117;-45
2023/07/25 15:17:36;;;;;;;0.55;0.52;;;25.50;48.80;;;;;;4922124;28;45267;-45
2023/07/25 15:20:09;;;;;;;0.90;0.70;;;25.50;48.80;;;;;;4938687;28;45293;-44
2023/07/25 15:22:35;;;;;;;0.60;0.50;;;25.40;48.70;;;;;;4897782;28;46279;-45
2023/07/25 15:25:00;;;;;;;0.80;0.60;;;25.50;48.80;;;;;;4941966;28;46423;-48
2023/07/25 15:27:26;;;;;;;0.60;0.60;;;25.50;48.80;;;;;;4928437;28;45070;-46
2023/07/25 15:29:52;;;;;;;0.73;0.60;;;25.40;48.70;;;;;;4938457;28;45821;-45
2023/07/25 15:32:18;;;;;;;1.13;0.63;;;25.50;48.80;;;;;;4907159;28;45628;-46
2023/07/25 15:34:43;;;;;;;1.10;0.60;;;25.50;48.80;;;;;;4938606;28;46752;-45
2023/07/25 15:37:09;;;;;;;0.50;0.50;;;25.40;48.70;;;;;;4930312;28;45229;-44
2023/07/25 15:39:34;;;;;;;0.87;0.77;;;25.50;48.80;;;;;;4916310;28;45263;-45
2023/07/25 15:42:00;;;;;;;0.53;0.53;;;25.50;48.80;;;;;;4927410;28;45240;-45
2023/07/25 15:44:26;;;;;;;0.45;0.45;;;25.50;48.70;;;;;;4939017;28;45635;-45